Time;durP1;ratioP1;P1;durP2;ratioP2;P2;SDS_P1;SDS_P2;PMS_P1;PMS_P2;Temp;Humidity;BMP_temperature;BMP_pressure;BME280_temperature;BME280_humidity;BME280_pressure;Samples;Min_cycle;Max_cycle;Signal;HPM_P1;HPM_P2
2023/04/16 00:00:15;;;;;;;11.07;4.00;;;;;;;6.79;100.00;102035.13;5224971;28;20464;-66
2023/04/16 00:02:46;;;;;;;7.97;3.72;;;;;;;6.78;100.00;102034.22;5227350;28;20068;-66
2023/04/16 00:05:18;;;;;;;14.02;4.40;;;;;;;6.78;100.00;102034.22;5224135;28;20038;-66
2023/04/16 00:07:50;;;;;;;10.07;4.13;;;;;;;6.78;100.00;102036.88;5226805;28;20033;-66
2023/04/16 00:10:22;;;;;;;9.20;4.40;;;;;;;6.79;100.00;102040.41;5235173;28;20483;-66
2023/04/16 00:12:53;;;;;;;10.25;4.30;;;;;;;6.79;100.00;102041.28;5233868;28;20095;-66
2023/04/16 00:15:24;;;;;;;8.27;4.00;;;;;;;6.80;100.00;102034.16;5233933;28;20049;-65
2023/04/16 00:17:56;;;;;;;12.55;4.38;;;;;;;6.80;100.00;102031.53;5233864;28;20478;-66
2023/04/16 00:20:27;;;;;;;11.60;4.38;;;;;;;6.82;100.00;102037.63;5234760;28;20048;-66
2023/04/16 00:22:59;;;;;;;10.30;4.13;;;;;;;6.82;100.00;102041.13;5225104;28;20067;-66
2023/04/16 00:25:30;;;;;;;13.40;5.10;;;;;;;6.81;100.00;102038.56;5238406;28;20737;-66
2023/04/16 00:28:01;;;;;;;11.77;4.47;;;;;;;6.82;100.00;102037.63;5233637;28;20033;-66
2023/04/16 00:30:34;;;;;;;9.02;4.70;;;;;;;6.82;100.00;102033.16;5233340;28;20037;-66
2023/04/16 00:33:05;;;;;;;10.43;4.32;;;;;;;6.83;100.00;102036.72;5234490;28;20029;-66
2023/04/16 00:35:37;;;;;;;13.63;4.72;;;;;;;6.84;100.00;102031.31;5223407;28;20026;-66
2023/04/16 00:38:08;;;;;;;11.32;4.90;;;;;;;6.85;100.00;102030.41;5237960;28;20476;-66
2023/04/16 00:40:39;;;;;;;10.57;4.80;;;;;;;6.86;100.00;102036.56;5238496;28;20163;-66
2023/04/16 00:43:11;;;;;;;11.48;5.07;;;;;;;6.86;100.00;102042.75;5229526;28;20064;-65
2023/04/16 00:45:42;;;;;;;14.90;5.97;;;;;;;6.87;100.00;102039.16;5239098;28;20498;-65
2023/04/16 00:48:14;;;;;;;12.38;5.25;;;;;;;6.87;100.00;102031.19;5243741;28;20083;-66
2023/04/16 00:50:45;;;;;;;14.48;4.82;;;;;;;6.86;100.00;102028.59;5240715;28;20033;-66
2023/04/16 00:53:17;;;;;;;13.02;5.13;;;;;;;6.88;100.00;102034.69;5229871;28;20040;-66
2023/04/16 00:55:49;;;;;;;9.60;4.82;;;;;;;6.88;100.00;102037.34;5238426;28;20026;-66
2023/04/16 00:58:20;;;;;;;12.82;5.45;;;;;;;6.90;100.00;102032.00;5234666;28;20033;-66
2023/04/16 01:00:52;;;;;;;14.43;5.90;;;;;;;6.90;100.00;102035.50;5227213;28;20396;-66
2023/04/16 01:03:39;;;;;;;10.02;6.00;;;;;;;6.90;100.00;102030.19;5233120;28;20324;-65
2023/04/16 01:06:11;;;;;;;11.10;5.18;;;;;;;6.92;100.00;102035.44;5225519;28;20029;-66
2023/04/16 01:08:43;;;;;;;11.77;5.45;;;;;;;6.92;100.00;102035.44;5230846;28;20075;-65
2023/04/16 01:11:15;;;;;;;9.70;5.80;;;;;;;6.93;100.00;102038.03;5234700;28;20021;-66
2023/04/16 01:13:46;;;;;;;10.27;6.32;;;;;;;6.96;100.00;102031.72;5225608;28;20033;-65
2023/04/16 01:16:17;;;;;;;10.32;5.75;;;;;;;6.97;100.00;102030.81;5223144;28;20030;-65
2023/04/16 01:18:49;;;;;;;11.00;6.15;;;;;;;6.99;100.00;102032.47;5227679;28;20039;-66
2023/04/16 01:21:20;;;;;;;10.63;6.38;;;;;;;6.99;100.00;102029.81;5226041;28;20058;-66
2023/04/16 01:23:51;;;;;;;14.02;6.35;;;;;;;7.00;100.00;102022.72;5222965;28;20068;-65
2023/04/16 01:26:23;;;;;;;14.25;7.28;;;;;;;7.02;100.00;102027.03;5229215;28;20033;-66
2023/04/16 01:28:55;;;;;;;18.52;6.88;;;;;;;7.03;100.00;102030.56;5224372;28;20037;-66
2023/04/16 01:31:26;;;;;;;15.85;7.05;;;;;;;7.04;100.00;102025.19;5222673;28;20052;-66
2023/04/16 01:33:57;;;;;;;11.55;6.57;;;;;;;7.06;100.00;102035.75;5225063;28;20040;-66
2023/04/16 01:36:29;;;;;;;12.60;6.97;;;;;;;7.06;100.00;102033.09;5227535;28;20489;-66
2023/04/16 01:39:00;;;;;;;15.70;7.50;;;;;;;7.06;100.00;102028.63;5226529;28;20034;-66
2023/04/16 01:41:32;;;;;;;12.85;7.47;;;;;;;7.07;100.00;102038.31;5224088;28;20033;-65
2023/04/16 01:44:03;;;;;;;13.55;7.30;;;;;;;7.08;100.00;102039.19;5223595;28;20040;-65
2023/04/16 01:46:36;;;;;;;15.27;8.15;;;;;;;7.07;100.00;102042.75;5223950;28;21012;-66
2023/04/16 01:49:07;;;;;;;15.25;8.13;;;;;;;7.06;100.00;102036.59;5224162;28;20106;-66
2023/04/16 01:51:39;;;;;;;14.38;7.95;;;;;;;7.09;100.00;102035.59;5233609;28;20143;-65
2023/04/16 01:54:10;;;;;;;13.98;8.20;;;;;;;7.09;100.00;102034.72;5229271;28;20246;-65
2023/04/16 01:56:42;;;;;;;15.98;8.15;;;;;;;7.12;100.00;102046.09;5232698;28;20075;-65
2023/04/16 01:59:13;;;;;;;14.23;7.97;;;;;;;7.09;100.00;102040.91;5229725;28;20490;-65
2023/04/16 02:01:45;;;;;;;14.52;9.00;;;;;;;7.11;100.00;102041.69;5233887;28;20041;-65
2023/04/16 02:04:16;;;;;;;12.13;8.43;;;;;;;7.10;100.00;102034.69;5234398;28;20094;-65
2023/04/16 02:06:47;;;;;;;16.42;9.15;;;;;;;7.11;100.00;102033.72;5231423;28;20514;-65
2023/04/16 02:09:19;;;;;;;14.63;9.00;;;;;;;7.11;100.00;102031.06;5232136;28;20100;-65
2023/04/16 02:11:50;;;;;;;14.20;9.60;;;;;;;7.11;100.00;102032.88;5237939;28;20478;-66
2023/04/16 02:14:24;;;;;;;16.23;9.27;;;;;;;7.12;100.00;102034.63;5220905;28;20030;-65
2023/04/16 02:16:56;;;;;;;16.45;9.07;;;;;;;7.14;100.00;102038.06;5229774;28;20040;-65
2023/04/16 02:19:27;;;;;;;20.83;10.48;;;;;;;7.14;100.00;102038.91;5231893;28;20033;-66
2023/04/16 02:22:00;;;;;;;16.33;10.30;;;;;;;7.17;100.00;102028.19;5231863;28;20514;-66
2023/04/16 02:24:32;;;;;;;14.00;9.60;;;;;;;7.17;100.00;102025.53;5230272;28;20093;-66
2023/04/16 02:27:03;;;;;;;15.35;9.52;;;;;;;7.19;100.00;102031.63;5230317;28;20124;-65
2023/04/16 02:29:34;;;;;;;17.42;10.43;;;;;;;7.18;100.00;102029.03;5230284;28;20044;-65
2023/04/16 02:32:06;;;;;;;17.17;10.10;;;;;;;7.22;100.00;102036.78;5225433;28;20034;-65
2023/04/16 02:34:39;;;;;;;16.92;10.00;;;;;;;7.23;100.00;102029.72;5232027;28;20037;-66
2023/04/16 02:37:10;;;;;;;15.68;8.90;;;;;;;7.25;100.00;102031.34;5227189;28;20037;-66
2023/04/16 02:39:42;;;;;;;14.73;10.02;;;;;;;7.28;100.00;102034.81;5236095;28;20685;-66
2023/04/16 02:42:15;;;;;;;15.30;9.38;;;;;;;7.30;100.00;102036.44;5226415;28;20752;-66
2023/04/16 02:44:46;;;;;;;16.42;9.10;;;;;;;7.30;100.00;102030.28;5230782;28;20040;-66
2023/04/16 02:47:17;;;;;;;13.90;8.80;;;;;;;7.31;100.00;102034.69;5231527;28;20384;-66
2023/04/16 02:49:49;;;;;;;12.02;8.77;;;;;;;7.33;100.00;102039.00;5223507;28;20108;-65
2023/04/16 02:52:20;;;;;;;15.98;8.45;;;;;;;7.33;100.00;102038.13;5228692;28;20032;-65
2023/04/16 02:54:51;;;;;;;13.57;8.55;;;;;;;7.33;100.00;102043.44;5219325;28;20861;-65
2023/04/16 02:57:23;;;;;;;12.40;7.68;;;;;;;7.34;100.00;102042.50;5226158;28;20116;-66
2023/04/16 02:59:54;;;;;;;15.80;8.25;;;;;;;7.36;100.00;102048.59;5229581;28;20076;-66
2023/04/16 03:02:26;;;;;;;17.15;8.73;;;;;;;7.35;100.00;102050.41;5223756;28;20072;-66
2023/04/16 03:04:57;;;;;;;11.63;8.20;;;;;;;7.37;100.00;102053.00;5221527;28;20057;-65
2023/04/16 03:07:29;;;;;;;14.38;8.98;;;;;;;7.37;100.00;102045.88;5226390;28;20022;-66
2023/04/16 03:10:00;;;;;;;12.73;8.35;;;;;;;7.36;100.00;102044.16;5227292;28;20026;-66
2023/04/16 03:12:31;;;;;;;14.13;9.43;;;;;;;7.39;100.00;102044.03;5225875;28;20460;-66
2023/04/16 03:15:03;;;;;;;14.85;9.55;;;;;;;7.41;100.00;102058.09;5229238;28;20502;-66
2023/04/16 03:17:35;;;;;;;12.90;8.90;;;;;;;7.40;100.00;102055.50;5229210;28;20029;-66
2023/04/16 03:20:07;;;;;;;18.95;9.48;;;;;;;7.43;100.00;102063.34;5228083;28;21446;-66
2023/04/16 03:22:38;;;;;;;13.88;9.38;;;;;;;7.43;100.00;102066.84;5228575;28;20526;-66
2023/04/16 03:25:10;;;;;;;16.65;10.80;;;;;;;7.43;100.00;102066.84;5226654;28;20021;-65
2023/04/16 03:27:41;;;;;;;13.65;10.10;;;;;;;7.42;100.00;102061.59;5230673;28;20025;-66
2023/04/16 03:30:13;;;;;;;15.65;10.32;;;;;;;7.42;100.00;102059.84;5232780;28;20033;-66
2023/04/16 03:32:45;;;;;;;16.52;11.73;;;;;;;7.43;100.00;102066.84;5225523;28;20032;-66
2023/04/16 03:35:17;;;;;;;19.08;12.05;;;;;;;7.43;100.00;102068.66;5230409;28;20373;-66
2023/04/16 03:37:49;;;;;;;22.15;12.60;;;;;;;7.39;100.00;102064.41;5229636;28;20028;-66
2023/04/16 03:40:20;;;;;;;19.65;13.02;;;;;;;7.41;100.00;102068.72;5228171;28;20064;-66
2023/04/16 03:42:52;;;;;;;21.23;12.73;;;;;;;7.39;100.00;102067.06;5227685;28;20112;-66
2023/04/16 03:45:23;;;;;;;19.08;13.02;;;;;;;7.39;100.00;102067.91;5230547;28;20032;-65
2023/04/16 03:47:55;;;;;;;20.90;12.95;;;;;;;7.40;100.00;102068.78;5224962;28;20029;-65
2023/04/16 03:50:26;;;;;;;20.73;12.95;;;;;;;7.42;100.00;102082.84;5226948;28;20029;-66
2023/04/16 03:52:57;;;;;;;24.83;14.27;;;;;;;7.41;100.00;102059.91;5225878;28;20026;-66
2023/04/16 03:55:28;;;;;;;23.40;14.07;;;;;;;7.42;100.00;102065.16;5223652;28;20079;-66
2023/04/16 03:58:01;;;;;;;24.27;15.05;;;;;;;7.42;100.00;102070.47;5229427;28;20038;-65
2023/04/16 04:00:33;;;;;;;24.00;14.48;;;;;;;7.41;100.00;102062.56;5227940;28;20037;-65
2023/04/16 04:03:04;;;;;;;22.70;15.20;;;;;;;7.41;100.00;102068.72;5227159;28;20395;-65
2023/04/16 04:05:40;;;;;;;20.85;14.38;;;;;;;7.40;100.00;102071.44;5229576;28;20024;-66
2023/04/16 04:08:11;;;;;;;22.13;15.35;;;;;;;7.41;100.00;102066.06;5226261;28;20055;-66
2023/04/16 04:10:44;;;;;;;21.83;15.40;;;;;;;7.41;100.00;102070.50;5226720;28;20059;-65
2023/04/16 04:13:16;;;;;;;25.20;15.82;;;;;;;7.39;100.00;102069.72;5227558;28;20028;-65
2023/04/16 04:15:47;;;;;;;25.08;16.42;;;;;;;7.39;100.00;102059.94;5225430;28;20383;-65
2023/04/16 04:18:18;;;;;;;22.92;15.73;;;;;;;7.43;100.00;102072.16;5232335;28;20028;-65
2023/04/16 04:20:51;;;;;;;25.63;14.77;;;;;;;7.43;100.00;102066.00;5233460;28;20668;-65
2023/04/16 04:23:22;;;;;;;23.50;14.25;;;;;;;7.44;100.00;102062.41;5226629;28;20551;-65
2023/04/16 04:25:54;;;;;;;21.90;13.95;;;;;;;7.44;100.00;102073.91;5228363;28;20036;-66
2023/04/16 04:28:25;;;;;;;22.45;14.32;;;;;;;7.44;100.00;102065.06;5228336;28;20033;-65
2023/04/16 04:30:58;;;;;;;20.85;13.52;;;;;;;7.44;100.00;102073.00;5231686;28;20115;-65
2023/04/16 04:33:29;;;;;;;23.00;13.85;;;;;;;7.42;100.00;102067.78;5228728;28;20041;-66
2023/04/16 04:36:01;;;;;;;23.63;14.10;;;;;;;7.44;100.00;102073.91;5224369;28;20025;-65
2023/04/16 04:38:32;;;;;;;20.80;13.52;;;;;;;7.44;100.00;102076.56;5230281;28;20057;-66
2023/04/16 04:41:03;;;;;;;20.25;13.23;;;;;;;7.45;100.00;102080.91;5225971;28;20443;-66
2023/04/16 04:43:35;;;;;;;21.67;14.02;;;;;;;7.43;100.00;102071.31;5224337;28;20029;-65
2023/04/16 04:46:06;;;;;;;21.13;13.90;;;;;;;7.43;100.00;102079.28;5228709;28;20372;-65
2023/04/16 04:48:38;;;;;;;26.58;15.10;;;;;;;7.42;100.00;102086.38;5228626;28;20024;-65
2023/04/16 04:51:09;;;;;;;21.58;14.45;;;;;;;7.42;100.00;102091.69;5229950;28;20076;-66
2023/04/16 04:53:41;;;;;;;24.17;13.90;;;;;;;7.43;100.00;102089.91;5227562;28;20036;-66
2023/04/16 04:56:12;;;;;;;22.63;14.73;;;;;;;7.44;100.00;102089.84;5230292;28;20021;-65
2023/04/16 04:58:43;;;;;;;23.52;14.90;;;;;;;7.42;100.00;102088.16;5229733;28;20065;-65
2023/04/16 05:01:15;;;;;;;28.33;15.18;;;;;;;7.42;100.00;102082.84;5226124;28;20087;-66
2023/04/16 05:03:46;;;;;;;27.27;15.07;;;;;;;7.41;100.00;102091.75;5223418;28;20438;-66
2023/04/16 05:06:18;;;;;;;25.52;14.10;;;;;;;7.42;100.00;102088.16;5221821;28;20022;-65
2023/04/16 05:08:49;;;;;;;24.50;14.35;;;;;;;7.42;100.00;102093.47;5227192;28;20108;-65
2023/04/16 05:11:21;;;;;;;24.45;14.23;;;;;;;7.43;100.00;102090.75;5226741;28;20479;-66
2023/04/16 05:13:52;;;;;;;25.50;14.18;;;;;;;7.42;100.00;102098.78;5225677;28;20034;-65
2023/04/16 05:16:23;;;;;;;26.52;15.23;;;;;;;7.42;100.00;102093.47;5226824;28;20034;-66
2023/04/16 05:18:55;;;;;;;23.58;14.10;;;;;;;7.41;100.00;102091.75;5226238;28;20068;-66
2023/04/16 05:21:26;;;;;;;25.05;14.63;;;;;;;7.41;100.00;102094.41;5226495;28;20037;-65
2023/04/16 05:23:58;;;;;;;27.42;14.73;;;;;;;7.42;100.00;102096.13;5226111;28;20033;-65
2023/04/16 05:26:29;;;;;;;24.92;14.10;;;;;;;7.43;100.00;102103.16;5223803;28;20025;-65
2023/04/16 05:29:01;;;;;;;28.05;15.18;;;;;;;7.40;100.00;102097.97;5225748;28;20014;-65
2023/04/16 05:31:32;;;;;;;21.90;13.48;;;;;;;7.40;100.00;102103.28;5225712;28;20036;-65
2023/04/16 05:34:04;;;;;;;23.55;14.00;;;;;;;7.42;100.00;102106.75;5227461;28;20037;-66
2023/04/16 05:36:35;;;;;;;22.27;14.10;;;;;;;7.44;100.00;102107.53;5223853;28;20029;-66
2023/04/16 05:39:06;;;;;;;29.63;14.65;;;;;;;7.43;100.00;102106.69;5222573;28;20048;-66
2023/04/16 05:41:38;;;;;;;25.85;15.07;;;;;;;7.43;100.00;102114.66;5227170;28;20025;-66
2023/04/16 05:44:09;;;;;;;27.42;13.88;;;;;;;7.43;100.00;102122.63;5227858;28;20029;-66
2023/04/16 05:46:40;;;;;;;26.45;13.80;;;;;;;7.47;100.00;102126.00;5228073;28;20467;-65
2023/04/16 05:49:12;;;;;;;26.00;13.98;;;;;;;7.44;100.00;102119.03;5225121;28;20490;-65
2023/04/16 05:51:43;;;;;;;22.90;13.80;;;;;;;7.45;100.00;102131.38;5220988;28;20021;-66
2023/04/16 05:54:15;;;;;;;24.00;13.15;;;;;;;7.47;100.00;102132.16;5224732;28;20715;-66
2023/04/16 05:56:46;;;;;;;22.65;12.85;;;;;;;7.48;100.00;102127.75;5228524;28;20029;-66
2023/04/16 05:59:18;;;;;;;25.60;14.35;;;;;;;7.45;100.00;102131.38;5222863;28;20263;-66
2023/04/16 06:01:49;;;;;;;23.92;14.27;;;;;;;7.46;100.00;102135.78;5223699;28;20148;-66
2023/04/16 06:04:20;;;;;;;23.45;14.57;;;;;;;7.47;100.00;102142.78;5223107;28;20026;-66
2023/04/16 06:06:52;;;;;;;27.35;14.35;;;;;;;7.47;100.00;102136.63;5224398;28;20427;-66
2023/04/16 06:09:23;;;;;;;24.13;14.07;;;;;;;7.48;100.00;102141.03;5226145;28;20132;-66
2023/04/16 06:11:55;;;;;;;26.17;14.57;;;;;;;7.50;100.00;102136.50;5236467;28;20030;-66
2023/04/16 06:14:26;;;;;;;25.65;13.73;;;;;;;7.52;100.00;102139.09;5227310;28;20037;-66
2023/04/16 06:16:58;;;;;;;26.58;15.02;;;;;;;7.50;100.00;102140.94;5226860;28;20032;-66
2023/04/16 06:19:29;;;;;;;24.63;14.75;;;;;;;7.51;100.00;102135.56;5227708;28;20056;-66
2023/04/16 06:22:01;;;;;;;26.75;14.98;;;;;;;7.54;100.00;102137.25;5226757;28;20048;-66
2023/04/16 06:24:33;;;;;;;27.15;17.17;;;;;;;7.56;100.00;102141.56;5232107;28;20025;-66
2023/04/16 06:27:04;;;;;;;27.25;15.10;;;;;;;7.56;100.00;102140.69;5223969;28;20037;-65
2023/04/16 06:29:36;;;;;;;25.67;14.63;;;;;;;7.58;100.00;102152.13;5228644;28;20017;-65
2023/04/16 06:32:07;;;;;;;22.95;14.00;;;;;;;7.57;100.00;102151.22;5221475;28;20461;-66
2023/04/16 06:34:39;;;;;;;26.73;15.40;;;;;;;7.60;100.00;102148.44;5224854;28;20025;-66
2023/04/16 06:37:10;;;;;;;24.42;13.95;;;;;;;7.62;100.00;102154.56;5230954;28;20029;-66
2023/04/16 06:39:42;;;;;;;22.55;15.00;;;;;;;7.61;100.00;102155.50;5223569;28;20399;-66
2023/04/16 06:42:13;;;;;;;24.23;14.25;;;;;;;7.65;100.00;102158.88;5226355;28;20666;-66
2023/04/16 06:44:45;;;;;;;25.73;14.20;;;;;;;7.65;100.00;102159.75;5223519;28;20064;-66
2023/04/16 06:47:16;;;;;;;27.08;14.95;;;;;;;7.69;100.00;102167.56;5223850;28;20530;-67
2023/04/16 06:49:48;;;;;;;27.58;15.60;;;;;;;7.70;100.00;102164.00;5221490;28;20032;-66
2023/04/16 06:52:19;;;;;;;25.42;14.05;;;;;;;7.70;100.00;102156.88;5226313;28;20026;-66
2023/04/16 06:54:51;;;;;;;23.77;14.30;;;;;;;7.70;100.00;102164.84;5226584;28;20033;-66
2023/04/16 06:57:22;;;;;;;21.10;13.60;;;;;;;7.72;100.00;102175.41;5228144;28;20021;-66
2023/04/16 06:59:53;;;;;;;22.90;14.02;;;;;;;7.71;100.00;102177.22;5229873;28;20106;-66
2023/04/16 07:02:25;;;;;;;22.02;12.95;;;;;;;7.74;100.00;102173.56;5226690;28;20053;-66
2023/04/16 07:04:56;;;;;;;24.60;13.73;;;;;;;7.74;100.00;102174.41;5228339;28;20060;-66
2023/04/16 07:07:28;;;;;;;27.95;13.93;;;;;;;7.75;100.00;102178.81;5219275;28;20033;-65
2023/04/16 07:09:59;;;;;;;26.52;13.80;;;;;;;7.78;100.00;102191.09;5230076;28;20121;-66
2023/04/16 07:12:31;;;;;;;22.65;14.35;;;;;;;7.78;100.00;102191.09;5220541;28;20033;-66
2023/04/16 07:15:04;;;;;;;26.38;14.00;;;;;;;7.79;100.00;102191.03;5231207;28;20144;-66
2023/04/16 07:17:35;;;;;;;27.73;14.75;;;;;;;7.83;100.00;102195.28;5229538;28;20033;-66
2023/04/16 07:20:07;;;;;;;28.27;15.10;;;;;;;7.81;100.00;102199.78;5229372;28;20032;-66
2023/04/16 07:22:39;;;;;;;26.77;15.13;;;;;;;7.82;100.00;102198.88;5234674;28;20029;-66
2023/04/16 07:25:10;;;;;;;30.10;15.35;;;;;;;7.89;100.00;102199.47;5233724;28;20048;-66
2023/04/16 07:27:41;;;;;;;30.73;16.08;;;;;;;7.88;100.00;102194.22;5237042;28;20059;-66
2023/04/16 07:30:13;;;;;;;32.28;15.95;;;;;;;7.89;100.00;102196.81;5228937;28;20033;-66
2023/04/16 07:32:44;;;;;;;31.15;16.35;;;;;;;7.87;100.00;102198.66;5226209;28;20673;-66
2023/04/16 07:35:16;;;;;;;28.67;16.02;;;;;;;7.90;100.00;102208.28;5232865;28;20033;-66
2023/04/16 07:37:47;;;;;;;28.48;16.48;;;;;;;7.90;100.00;102203.88;5227850;28;20163;-66
2023/04/16 07:40:19;;;;;;;30.92;15.63;;;;;;;7.92;100.00;102209.09;5226865;28;20382;-66
2023/04/16 07:42:51;;;;;;;32.60;16.00;;;;;;;7.96;100.00;102211.56;5227342;28;20380;-66
2023/04/16 07:45:22;;;;;;;30.65;15.90;;;;;;;7.98;100.00;102219.47;5227044;28;20107;-66
2023/04/16 07:47:54;;;;;;;36.60;16.30;;;;;;;7.96;100.00;102211.56;5235945;28;20112;-66
2023/04/16 07:50:25;;;;;;;32.03;17.08;;;;;;;7.98;100.00;102217.66;5227919;28;20063;-66
2023/04/16 07:52:56;;;;;;;29.55;17.00;;;;;;;7.99;100.00;102219.38;5224711;28;20034;-66
2023/04/16 07:55:28;;;;;;;27.08;15.63;;;;;;;8.03;100.00;102223.66;5230620;28;20030;-66
2023/04/16 07:57:59;;;;;;;29.58;15.80;;;;;;;8.04;100.00;102227.19;5229515;28;20452;-66
2023/04/16 08:00:31;;;;;;;32.25;16.88;;;;;;;8.04;100.00;102228.03;5233063;28;20072;-66
2023/04/16 08:03:02;;;;;;;31.55;16.90;;;;;;;8.03;100.00;102231.63;5231737;28;20118;-66
2023/04/16 08:05:34;;;;;;;33.25;17.52;;;;;;;8.02;100.00;102227.22;5225273;28;20045;-66
2023/04/16 08:08:05;;;;;;;32.45;17.33;;;;;;;8.04;100.00;102237.81;5225857;28;20119;-66
2023/04/16 08:10:38;;;;;;;35.13;17.83;;;;;;;8.04;100.00;102236.00;5222957;28;20485;-66
2023/04/16 08:13:09;;;;;;;30.70;16.88;;;;;;;8.06;100.00;102235.94;5226522;28;20875;-66
2023/04/16 08:15:40;;;;;;;30.92;17.20;;;;;;;8.10;100.00;102231.38;5225962;28;20053;-66
2023/04/16 08:18:14;;;;;;;31.33;16.80;;;;;;;8.15;100.00;102242.63;5225916;28;20036;-66
2023/04/16 08:20:45;;;;;;;32.53;17.60;;;;;;;8.18;100.00;102245.16;5222415;28;20033;-66
2023/04/16 08:23:17;;;;;;;33.25;17.13;;;;;;;8.18;100.00;102240.72;5224457;28;20287;-66
2023/04/16 08:25:48;;;;;;;35.35;17.80;;;;;;;8.22;100.00;102250.28;5224717;28;20111;-66
2023/04/16 08:28:19;;;;;;;35.80;18.10;;;;;;;8.22;100.00;102247.63;5224192;28;20112;-66
2023/04/16 08:30:51;;;;;;;34.13;17.63;;;;;;;8.22;100.00;102252.94;5223590;28;20029;-66
2023/04/16 08:33:22;;;;;;;34.05;17.45;;;;;;;8.23;100.00;102252.00;5224942;28;20397;-65
2023/04/16 08:35:54;;;;;;;37.38;17.77;;;;;;;8.23;100.00;102259.13;5224074;28;20660;-65
2023/04/16 08:38:26;;;;;;;37.90;17.65;;;;;;;8.24;100.00;102256.38;5230074;28;20569;-65
2023/04/16 08:41:02;;;;;;;35.05;18.13;;;;;;;8.28;100.00;102251.81;5231056;28;20038;-65
2023/04/16 08:43:38;;;;;;;36.00;19.05;;;;;;;8.30;100.00;102270.34;5230150;28;20033;-66
2023/04/16 08:46:11;;;;;;;32.63;16.70;;;;;;;8.32;100.00;102264.06;5232245;28;20076;-66
2023/04/16 08:48:48;;;;;;;34.00;18.02;;;;;;;8.35;100.00;102263.03;5231535;28;20022;-66
2023/04/16 08:51:21;;;;;;;34.00;17.85;;;;;;;8.37;100.00;102270.00;5221944;28;20056;-66
2023/04/16 08:54:02;;;;;;;31.17;17.80;;;;;;;8.36;100.00;102268.31;5230483;28;20036;-66
2023/04/16 08:56:36;;;;;;;36.03;17.55;;;;;;;8.36;100.00;102265.66;5231241;28;20364;-66
2023/04/16 08:59:08;;;;;;;32.10;17.67;;;;;;;8.35;100.00;102271.88;5228335;28;20495;-66
2023/04/16 09:01:40;;;;;;;31.13;17.08;;;;;;;8.39;100.00;102275.28;5234539;28;20051;-66
2023/04/16 09:04:14;;;;;;;30.50;17.10;;;;;;;8.38;100.00;102274.41;5232612;28;20130;-65
2023/04/16 09:06:47;;;;;;;36.88;18.05;;;;;;;8.43;100.00;102276.88;5229674;28;20033;-66
2023/04/16 09:09:20;;;;;;;34.42;17.50;;;;;;;8.46;100.00;102278.53;5233671;28;20108;-65
2023/04/16 09:11:52;;;;;;;38.10;17.88;;;;;;;8.44;100.00;102279.50;5237637;28;20022;-66
2023/04/16 09:14:23;;;;;;;33.28;17.75;;;;;;;8.46;100.00;102278.53;5241209;28;20028;-66
2023/04/16 09:16:56;;;;;;;35.05;18.20;;;;;;;8.49;100.00;102275.75;5228457;28;20022;-66
2023/04/16 09:19:27;;;;;;;37.60;17.17;;;;;;;8.51;100.00;102284.53;5233788;28;20549;-66
2023/04/16 09:21:59;;;;;;;31.63;17.33;;;;;;;8.53;100.00;102285.31;5226004;28;20025;-65
2023/04/16 09:24:31;;;;;;;32.88;16.67;;;;;;;8.53;100.00;102285.31;5231492;28;20036;-66
2023/04/16 09:27:02;;;;;;;32.83;17.55;;;;;;;8.59;100.00;102287.69;5234799;28;20386;-66
2023/04/16 09:29:36;;;;;;;32.50;16.80;;;;;;;8.63;100.00;102290.19;5233712;28;20022;-66
2023/04/16 09:32:09;;;;;;;30.13;17.77;;;;;;;8.69;100.00;102289.03;5246876;28;20051;-65
2023/04/16 09:34:58;;;;;;;32.00;16.73;;;;;;;8.73;100.00;102295.94;5241541;28;20152;-65
2023/04/16 09:37:30;;;;;;;31.05;16.35;;;;;;;8.70;100.00;102290.75;5226551;28;20029;-66
2023/04/16 09:40:03;;;;;;;30.35;16.52;;;;;;;8.70;100.00;102296.06;5236654;28;20047;-66
2023/04/16 09:42:36;;;;;;;31.90;16.77;;;;;;;8.72;100.00;102301.31;5232932;28;20076;-64
2023/04/16 09:45:07;;;;;;;36.70;17.55;;;;;;;8.75;100.00;102307.38;5237979;28;20056;-64
2023/04/16 09:47:43;;;;;;;31.85;18.35;;;;;;;8.76;100.00;102306.47;5232148;28;20556;-65
2023/04/16 09:50:17;;;;;;;31.23;17.45;;;;;;;8.73;100.00;102306.59;5224948;28;20117;-65
2023/04/16 09:52:50;;;;;;;34.75;16.23;;;;;;;8.77;100.00;102305.50;5227922;28;20388;-65
2023/04/16 09:55:22;;;;;;;33.00;16.80;;;;;;;8.86;100.00;102300.69;5232368;28;20021;-65
2023/04/16 09:58:00;;;;;;;32.28;17.52;;;;;;;8.87;100.00;102313.06;5226595;28;20395;-66
2023/04/16 10:00:32;;;;;;;32.83;15.98;;;;;;;8.91;100.00;102309.34;5224344;28;20033;-66
2023/04/16 10:03:04;;;;;;;30.60;16.73;;;;;;;8.90;100.00;102311.16;5230722;28;20033;-66
2023/04/16 10:05:36;;;;;;;30.20;16.58;;;;;;;8.88;100.00;102315.69;5229424;28;20029;-66
2023/04/16 10:08:12;;;;;;;31.73;16.48;;;;;;;8.89;100.00;102319.19;5232941;28;20047;-66
2023/04/16 10:10:44;;;;;;;33.03;17.42;;;;;;;8.88;100.00;102314.78;5235181;28;20379;-66
2023/04/16 10:13:16;;;;;;;28.85;16.65;;;;;;;8.88;100.00;102313.00;5232180;28;20025;-66
2023/04/16 10:15:49;;;;;;;31.52;17.50;;;;;;;8.90;100.00;102316.47;5235435;28;20840;-65
2023/04/16 10:18:21;;;;;;;30.63;17.42;;;;;;;8.91;100.00;102315.50;5237262;28;20044;-66
2023/04/16 10:20:53;;;;;;;31.00;16.88;;;;;;;8.94;100.00;102319.84;5232084;28;20017;-66
2023/04/16 10:23:25;;;;;;;31.42;16.98;;;;;;;8.98;100.00;102316.13;5228639;28;20129;-66
2023/04/16 10:25:58;;;;;;;33.75;17.10;;;;;;;9.00;100.00;102319.56;5239098;28;20017;-66
2023/04/16 10:28:30;;;;;;;29.08;16.27;;;;;;;9.00;100.00;102312.44;5231671;28;20053;-65
2023/04/16 10:31:07;;;;;;;34.17;17.73;;;;;;;9.00;100.00;102322.22;5230162;28;20041;-66
2023/04/16 10:33:40;;;;;;;33.28;17.48;;;;;;;8.99;100.00;102321.38;5234670;28;20115;-66
2023/04/16 10:36:21;;;;;;;32.38;18.05;;;;;;;9.01;100.00;102321.28;5228864;28;20113;-65
2023/04/16 10:38:57;;;;;;;28.35;17.20;;;;;;;9.00;100.00;102330.22;5227111;28;20064;-66
2023/04/16 10:41:32;;;;;;;30.20;16.60;;;;;;;9.02;100.00;102329.19;5225454;28;20116;-66
2023/04/16 10:44:08;;;;;;;34.42;16.77;;;;;;;8.99;100.00;102331.13;5232495;28;20334;-66
2023/04/16 10:46:53;;;;;;;32.42;17.83;;;;;;;8.97;100.00;102336.53;5238006;28;21560;-65
2023/04/16 10:49:26;;;;;;;27.00;17.40;;;;;;;8.95;100.00;102325.09;5226395;28;20555;-66
2023/04/16 10:51:59;;;;;;;30.90;17.42;;;;;;;8.95;100.00;102332.22;5224368;28;20034;-66
2023/04/16 10:54:31;;;;;;;32.43;17.83;;;;;;;8.96;100.00;102323.31;5227052;28;20021;-66
2023/04/16 10:57:04;;;;;;;32.88;17.65;;;;;;;8.95;100.00;102332.22;5231577;28;20025;-66
2023/04/16 10:59:38;;;;;;;30.48;17.70;;;;;;;8.95;100.00;102332.22;5223689;28;20029;-65
2023/04/16 11:02:16;;;;;;;35.60;18.23;;;;;;;9.00;100.00;102332.88;5228114;28;20069;-66
2023/04/16 11:04:48;;;;;;;29.08;16.58;;;;;;;9.01;100.00;102327.50;5225001;28;20078;-66
2023/04/16 11:07:30;;;;;;;33.42;17.55;;;;;;;9.07;100.00;102330.78;5223668;28;20025;-66
2023/04/16 11:10:03;;;;;;;29.65;17.92;;;;;;;9.07;100.00;102328.13;5240714;28;20040;-65
2023/04/16 11:12:39;;;;;;;33.97;17.52;;;;;;;9.06;100.00;102327.25;5230793;28;20546;-66
2023/04/16 11:15:11;;;;;;;32.00;17.23;;;;;;;9.10;100.00;102326.19;5231140;28;20018;-65
2023/04/16 11:17:47;;;;;;;30.30;18.27;;;;;;;9.11;100.00;102327.94;5231811;28;20040;-65
2023/04/16 11:20:24;;;;;;;27.52;17.38;;;;;;;9.15;100.00;102324.19;5228513;28;20034;-65
2023/04/16 11:22:56;;;;;;;28.90;16.95;;;;;;;9.19;100.00;102320.44;5228154;28;20599;-66
2023/04/16 11:25:30;;;;;;;30.27;17.52;;;;;;;9.22;100.00;102320.31;5222415;28;20384;-66
2023/04/16 11:28:01;;;;;;;27.90;18.13;;;;;;;9.23;100.00;102324.66;5226139;28;20063;-65
2023/04/16 11:30:35;;;;;;;29.77;17.30;;;;;;;9.27;100.00;102322.72;5223068;28;20287;-65
2023/04/16 11:33:11;;;;;;;29.90;16.57;;;;;;;9.29;100.00;102322.66;5225689;28;20033;-65